AAL227 KBOS-KCLE
Flight info
| Callsign | AAL227 |
|---|---|
| Flight time | N/A |
| Altitude | 38000 |
| Route | HYLND7 HYLND CAM Q822 GONZZ HANKK THOME TRYBE4 |
| Aircraft | B738/M-SDE2E3FGHIRWXY/LB1 |
Departure
| Time | 2026-05-07 23:31 |
|---|---|
| Airport | Boston Logan International Airport (KBOS) |
Arrival
| Time | N/A |
|---|---|
| Airport | Cleveland Hopkins International Airport (KCLE) |
| Time | Latitude | Longitude | Altitude | Speed | Heading |
|---|---|---|---|---|---|
| 2026-05-07 23:02 | 42.36088 | -71.01680 | 28 ft | 0 kts | 289° |
| 2026-05-07 23:04 | 42.36088 | -71.01681 | 28 ft | 0 kts | 289° |
| 2026-05-07 23:07 | 42.36089 | -71.01681 | 28 ft | 0 kts | 289° |
| 2026-05-07 23:08 | 42.36089 | -71.01682 | 28 ft | 0 kts | 289° |
| 2026-05-07 23:11 | 42.36089 | -71.01683 | 28 ft | 0 kts | 289° |
| 2026-05-07 23:15 | 42.36089 | -71.01684 | 28 ft | 0 kts | 289° |
| 2026-05-07 23:18 | 42.36089 | -71.01685 | 28 ft | 0 kts | 289° |
| 2026-05-07 23:19 | 42.36086 | -71.01673 | 28 ft | 2 kts | 287° |
| 2026-05-07 23:19 | 42.36083 | -71.01649 | 28 ft | 3 kts | 271° |
| 2026-05-07 23:19 | 42.36086 | -71.01622 | 28 ft | 3 kts | 254° |
| 2026-05-07 23:19 | 42.36094 | -71.01597 | 28 ft | 3 kts | 237° |
| 2026-05-07 23:20 | 42.36107 | -71.01576 | 28 ft | 3 kts | 222° |
| 2026-05-07 23:20 | 42.36119 | -71.01564 | 28 ft | 0 kts | 213° |
| 2026-05-07 23:20 | 42.36118 | -71.01564 | 28 ft | 0 kts | 213° |
| 2026-05-07 23:21 | 42.36109 | -71.01570 | 28 ft | 8 kts | 206° |
| 2026-05-07 23:21 | 42.36053 | -71.01589 | 28 ft | 9 kts | 188° |
| 2026-05-07 23:22 | 42.35989 | -71.01604 | 28 ft | 10 kts | 193° |
| 2026-05-07 23:22 | 42.35946 | -71.01618 | 28 ft | 0 kts | 194° |
| 2026-05-07 23:22 | 42.35945 | -71.01618 | 28 ft | 0 kts | 194° |
| 2026-05-07 23:22 | 42.35927 | -71.01620 | 28 ft | 7 kts | 179° |
| 2026-05-07 23:23 | 42.35898 | -71.01600 | 28 ft | 3 kts | 120° |
| 2026-05-07 23:23 | 42.35896 | -71.01578 | 28 ft | 2 kts | 77° |
| 2026-05-07 23:23 | 42.35938 | -71.01532 | 28 ft | 13 kts | 25° |
| 2026-05-07 23:23 | 42.36023 | -71.01488 | 28 ft | 13 kts | 19° |
| 2026-05-07 23:24 | 42.36110 | -71.01445 | 28 ft | 13 kts | 20° |
| 2026-05-07 23:24 | 42.36199 | -71.01405 | 28 ft | 14 kts | 20° |
| 2026-05-07 23:24 | 42.36277 | -71.01366 | 28 ft | 10 kts | 20° |
| 2026-05-07 23:24 | 42.36323 | -71.01326 | 28 ft | 7 kts | 62° |
| 2026-05-07 23:25 | 42.36307 | -71.01246 | 28 ft | 12 kts | 126° |
| 2026-05-07 23:25 | 42.36262 | -71.01147 | 28 ft | 13 kts | 117° |
| 2026-05-07 23:25 | 42.36222 | -71.01024 | 28 ft | 15 kts | 112° |
| 2026-05-07 23:25 | 42.36177 | -71.00893 | 28 ft | 15 kts | 115° |
| 2026-05-07 23:26 | 42.36158 | -71.00835 | 28 ft | 0 kts | 114° |
| 2026-05-07 23:26 | 42.36157 | -71.00833 | 28 ft | 2 kts | 114° |
| 2026-05-07 23:26 | 42.36128 | -71.00743 | 28 ft | 19 kts | 109° |
| 2026-05-07 23:27 | 42.36036 | -71.00386 | 28 ft | 17 kts | 110° |
| 2026-05-07 23:27 | 42.36003 | -71.00253 | 28 ft | 13 kts | 110° |
| 2026-05-07 23:27 | 42.35975 | -71.00150 | 28 ft | 10 kts | 112° |
| 2026-05-07 23:28 | 42.35948 | -71.00080 | 28 ft | 8 kts | 124° |
| 2026-05-07 23:28 | 42.35901 | -71.00008 | 28 ft | 12 kts | 136° |
| 2026-05-07 23:28 | 42.35832 | -70.99918 | 28 ft | 15 kts | 132° |
| 2026-05-07 23:28 | 42.35752 | -70.99804 | 28 ft | 17 kts | 136° |
| 2026-05-07 23:29 | 42.35668 | -70.99695 | 28 ft | 16 kts | 134° |
| 2026-05-07 23:29 | 42.35616 | -70.99625 | 28 ft | 15 kts | 135° |
| 2026-05-07 23:29 | 42.35545 | -70.99530 | 28 ft | 14 kts | 137° |
| 2026-05-07 23:29 | 42.35494 | -70.99436 | 28 ft | 11 kts | 95° |
| 2026-05-07 23:30 | 42.35502 | -70.99339 | 28 ft | 10 kts | 72° |
| 2026-05-07 23:30 | 42.35523 | -70.99281 | 28 ft | 3 kts | 7° |
| 2026-05-07 23:30 | 42.35536 | -70.99284 | 28 ft | 4 kts | 343° |
| 2026-05-07 23:30 | 42.35559 | -70.99301 | 28 ft | 3 kts | 322° |
| 2026-05-07 23:31 | 42.35618 | -70.99371 | 28 ft | 38 kts | 317° |
| 2026-05-07 23:31 | 42.36010 | -70.99891 | 28 ft | 117 kts | 314° |
| 2026-05-07 23:31 | 42.36745 | -71.00868 | 203 ft | 164 kts | 315° |
| 2026-05-07 23:31 | 42.37482 | -71.01874 | 1444 ft | 139 kts | 314° |
| 2026-05-07 23:32 | 42.38181 | -71.02826 | 2276 ft | 151 kts | 314° |
| 2026-05-07 23:32 | 42.38930 | -71.03917 | 2961 ft | 162 kts | 307° |
| 2026-05-07 23:32 | 42.39537 | -71.05248 | 3661 ft | 172 kts | 299° |
| 2026-05-07 23:32 | 42.40079 | -71.06685 | 4522 ft | 170 kts | 298° |
| 2026-05-07 23:33 | 42.40682 | -71.08072 | 5314 ft | 174 kts | 310° |
| 2026-05-07 23:33 | 42.41733 | -71.09038 | 5836 ft | 193 kts | 336° |
| 2026-05-07 23:33 | 42.43006 | -71.09640 | 6665 ft | 195 kts | 340° |
| 2026-05-07 23:33 | 42.44322 | -71.10261 | 7341 ft | 207 kts | 339° |
| 2026-05-07 23:34 | 42.45726 | -71.10928 | 7996 ft | 219 kts | 339° |
| 2026-05-07 23:34 | 42.47165 | -71.11618 | 8909 ft | 217 kts | 338° |
| 2026-05-07 23:34 | 42.48563 | -71.12327 | 9855 ft | 218 kts | 338° |
| 2026-05-07 23:34 | 42.50038 | -71.13094 | 10365 ft | 235 kts | 337° |
| 2026-05-07 23:35 | 42.51617 | -71.13913 | 10876 ft | 251 kts | 338° |
| 2026-05-07 23:35 | 42.53301 | -71.14777 | 11375 ft | 267 kts | 338° |
| 2026-05-07 23:35 | 42.55099 | -71.15697 | 11854 ft | 284 kts | 338° |
| 2026-05-07 23:35 | 42.57002 | -71.16673 | 12318 ft | 301 kts | 338° |
| 2026-05-07 23:36 | 42.58986 | -71.17691 | 13005 ft | 308 kts | 337° |
| 2026-05-07 23:36 | 42.61005 | -71.18728 | 13808 ft | 312 kts | 337° |
| 2026-05-07 23:36 | 42.63043 | -71.19776 | 14622 ft | 315 kts | 337° |
| 2026-05-07 23:36 | 42.64173 | -71.20356 | 15068 ft | 316 kts | 336° |
| 2026-05-07 23:37 | 42.66238 | -71.21419 | 15869 ft | 320 kts | 336° |
| 2026-05-07 23:37 | 42.68330 | -71.22496 | 16659 ft | 323 kts | 336° |
| 2026-05-07 23:37 | 42.70438 | -71.23582 | 17435 ft | 326 kts | 336° |
| 2026-05-07 23:37 | 42.72540 | -71.24666 | 18187 ft | 329 kts | 336° |
| 2026-05-07 23:38 | 42.74663 | -71.25952 | 18885 ft | 331 kts | 326° |
| 2026-05-07 23:38 | 42.76434 | -71.27882 | 19578 ft | 331 kts | 310° |
| 2026-05-07 23:38 | 42.77742 | -71.30448 | 20325 ft | 331 kts | 296° |
| 2026-05-07 23:38 | 42.78521 | -71.33388 | 21075 ft | 332 kts | 284° |
| 2026-05-07 23:39 | 42.78977 | -71.36487 | 21790 ft | 335 kts | 281° |
| 2026-05-07 23:39 | 42.79364 | -71.39625 | 22470 ft | 337 kts | 280° |
| 2026-05-07 23:39 | 42.79738 | -71.42801 | 23131 ft | 340 kts | 280° |
| 2026-05-07 23:39 | 42.80110 | -71.45990 | 23770 ft | 342 kts | 279° |
| 2026-05-07 23:40 | 42.80480 | -71.49203 | 24387 ft | 345 kts | 279° |
| 2026-05-07 23:40 | 42.80848 | -71.52439 | 24985 ft | 347 kts | 279° |
| 2026-05-07 23:40 | 42.81216 | -71.55700 | 25563 ft | 349 kts | 279° |
| 2026-05-07 23:40 | 42.81581 | -71.58977 | 26120 ft | 352 kts | 279° |
| 2026-05-07 23:41 | 42.81943 | -71.62283 | 26660 ft | 354 kts | 278° |
| 2026-05-07 23:41 | 42.82306 | -71.65604 | 27180 ft | 356 kts | 278° |
| 2026-05-07 23:41 | 42.82670 | -71.68951 | 27683 ft | 358 kts | 278° |
| 2026-05-07 23:41 | 42.83036 | -71.72321 | 28169 ft | 360 kts | 278° |
| 2026-05-07 23:42 | 42.83403 | -71.75710 | 28639 ft | 362 kts | 278° |
| 2026-05-07 23:42 | 42.83771 | -71.79116 | 29091 ft | 364 kts | 278° |
| 2026-05-07 23:42 | 42.84140 | -71.82539 | 29525 ft | 366 kts | 278° |
| 2026-05-07 23:42 | 42.84510 | -71.85987 | 29943 ft | 368 kts | 278° |
| 2026-05-07 23:43 | 42.84881 | -71.89450 | 30342 ft | 370 kts | 277° |
| 2026-05-07 23:43 | 42.85252 | -71.92928 | 30724 ft | 372 kts | 277° |
| 2026-05-07 23:43 | 42.85625 | -71.96423 | 31090 ft | 374 kts | 277° |
| 2026-05-07 23:43 | 42.85996 | -71.99924 | 31609 ft | 370 kts | 277° |
| 2026-05-07 23:44 | 42.86359 | -72.03356 | 32343 ft | 361 kts | 277° |
| 2026-05-07 23:44 | 42.86712 | -72.06703 | 33061 ft | 353 kts | 277° |
| 2026-05-07 23:44 | 42.87057 | -72.09982 | 33605 ft | 350 kts | 276° |
| 2026-05-07 23:44 | 42.87407 | -72.13317 | 33644 ft | 359 kts | 276° |
| 2026-05-07 23:45 | 42.88124 | -72.20181 | 33728 ft | 376 kts | 276° |
| 2026-05-07 23:45 | 42.88869 | -72.27359 | 33813 ft | 389 kts | 276° |
| 2026-05-07 23:46 | 42.89633 | -72.34763 | 33897 ft | 399 kts | 276° |
| 2026-05-07 23:46 | 42.90408 | -72.42324 | 34133 ft | 404 kts | 276° |
| 2026-05-07 23:47 | 42.90794 | -72.46110 | 34311 ft | 404 kts | 276° |
| 2026-05-07 23:47 | 42.91179 | -72.49905 | 34501 ft | 403 kts | 276° |
| 2026-05-07 23:47 | 42.91563 | -72.53699 | 34695 ft | 403 kts | 276° |
| 2026-05-07 23:47 | 42.91946 | -72.57484 | 34894 ft | 402 kts | 276° |
| 2026-05-07 23:48 | 42.92325 | -72.61260 | 35091 ft | 402 kts | 276° |
| 2026-05-07 23:48 | 42.92704 | -72.65036 | 35283 ft | 401 kts | 276° |
| 2026-05-07 23:48 | 42.93080 | -72.68797 | 35474 ft | 400 kts | 276° |
| 2026-05-07 23:48 | 42.93454 | -72.72560 | 35665 ft | 399 kts | 276° |
| 2026-05-07 23:49 | 42.93827 | -72.76311 | 35850 ft | 399 kts | 276° |
| 2026-05-07 23:49 | 42.94197 | -72.80060 | 36030 ft | 398 kts | 275° |
| 2026-05-07 23:49 | 42.94566 | -72.83804 | 36205 ft | 397 kts | 275° |
| 2026-05-07 23:49 | 42.94928 | -72.87492 | 36372 ft | 397 kts | 275° |
| 2026-05-07 23:50 | 42.95293 | -72.91223 | 36537 ft | 397 kts | 275° |
| 2026-05-07 23:50 | 42.95657 | -72.94950 | 36699 ft | 396 kts | 275° |
| 2026-05-07 23:50 | 42.96019 | -72.98672 | 36856 ft | 396 kts | 275° |
| 2026-05-07 23:50 | 42.96380 | -73.02403 | 37012 ft | 395 kts | 275° |
| 2026-05-07 23:51 | 42.96739 | -73.06121 | 37163 ft | 395 kts | 275° |
| 2026-05-07 23:51 | 42.97097 | -73.09843 | 37310 ft | 395 kts | 275° |
| 2026-05-07 23:51 | 42.97454 | -73.13561 | 37453 ft | 395 kts | 275° |
| 2026-05-07 23:51 | 42.97809 | -73.17275 | 37596 ft | 394 kts | 275° |
| 2026-05-07 23:52 | 42.98162 | -73.20986 | 37741 ft | 394 kts | 275° |
| 2026-05-07 23:52 | 42.98515 | -73.24702 | 37798 ft | 395 kts | 275° |
| 2026-05-07 23:52 | 42.99061 | -73.30489 | 37807 ft | 396 kts | 275° |
| 2026-05-07 23:53 | 42.99499 | -73.37958 | 37810 ft | 393 kts | 270° |
| 2026-05-07 23:53 | 42.99704 | -73.45409 | 37810 ft | 392 kts | 270° |
| 2026-05-07 23:54 | 42.99887 | -73.52839 | 37810 ft | 391 kts | 270° |
| 2026-05-07 23:54 | 43.00063 | -73.60248 | 37810 ft | 390 kts | 270° |
| 2026-05-07 23:55 | 43.00234 | -73.67659 | 37810 ft | 389 kts | 270° |
| 2026-05-07 23:55 | 43.00400 | -73.75056 | 37810 ft | 389 kts | 270° |
| 2026-05-07 23:56 | 43.00560 | -73.82405 | 37810 ft | 389 kts | 270° |
| 2026-05-07 23:56 | 43.00717 | -73.89799 | 37810 ft | 390 kts | 270° |
| 2026-05-07 23:57 | 43.00868 | -73.97198 | 37810 ft | 390 kts | 270° |
| 2026-05-07 23:57 | 43.00942 | -74.00869 | 37487 ft | 381 kts | 270° |
| 2026-05-07 23:57 | 43.01013 | -74.04483 | 36290 ft | 379 kts | 270° |
| 2026-05-07 23:58 | 43.01083 | -74.08072 | 35023 ft | 378 kts | 270° |
| 2026-05-07 23:58 | 43.01152 | -74.11682 | 33639 ft | 380 kts | 271° |
| 2026-05-07 23:58 | 43.01220 | -74.15298 | 32225 ft | 382 kts | 271° |
| 2026-05-07 23:58 | 43.01287 | -74.18944 | 30775 ft | 384 kts | 271° |
| 2026-05-07 23:59 | 43.01353 | -74.22595 | 29298 ft | 385 kts | 272° |
| 2026-05-07 23:59 | 43.01422 | -74.26257 | 27786 ft | 386 kts | 273° |
| 2026-05-07 23:59 | 43.01581 | -74.29924 | 26235 ft | 387 kts | 274° |
| 2026-05-07 23:59 | 43.01760 | -74.33602 | 24653 ft | 388 kts | 275° |
| 2026-05-08 00:00 | 43.01936 | -74.37277 | 23043 ft | 388 kts | 275° |
| 2026-05-08 00:00 | 43.02109 | -74.40969 | 21395 ft | 389 kts | 275° |
| 2026-05-08 00:00 | 43.02277 | -74.44654 | 19721 ft | 389 kts | 275° |
| 2026-05-08 00:00 | 43.02441 | -74.48344 | 18052 ft | 388 kts | 275° |
| 2026-05-08 00:01 | 43.02602 | -74.52006 | 16511 ft | 384 kts | 275° |
| 2026-05-08 00:01 | 43.02760 | -74.55627 | 15023 ft | 379 kts | 275° |